Time;durP1;ratioP1;P1;durP2;ratioP2;P2;SDS_P1;SDS_P2;PMS_P1;PMS_P2;Temp;Humidity;BMP_temperature;BMP_pressure;BME280_temperature;BME280_humidity;BME280_pressure;Samples;Min_cycle;Max_cycle;Signal;HPM_P1;HPM_P2
2022/01/31 00:02:05;;;;;;;13.50;2.47;;;3.30;99.90;;;;;;4991160;28;20184;-77
2022/01/31 00:04:30;;;;;;;16.87;3.30;;;3.30;99.90;;;;;;4989606;28;20207;-78
2022/01/31 00:06:57;;;;;;;10.37;3.10;;;3.30;99.90;;;;;;4989684;28;20249;-79
2022/01/31 00:09:23;;;;;;;15.60;3.67;;;3.30;99.90;;;;;;4989028;28;20177;-79
2022/01/31 00:11:57;;;;;;;14.80;2.67;;;3.30;99.90;;;;;;4988997;28;20289;-78
2022/01/31 00:14:34;;;;;;;13.47;3.17;;;3.30;99.90;;;;;;4988912;28;20168;-78
2022/01/31 00:17:00;;;;;;;14.27;2.93;;;3.30;99.90;;;;;;4987015;28;20210;-78
2022/01/31 00:19:25;;;;;;;15.83;3.10;;;3.40;99.90;;;;;;4988744;28;20180;-79
2022/01/31 00:21:51;;;;;;;12.33;2.70;;;3.30;99.90;;;;;;4987635;28;20184;-79
2022/01/31 00:24:17;;;;;;;16.07;3.30;;;3.30;99.90;;;;;;4968795;28;20188;-78
2022/01/31 00:26:42;;;;;;;10.60;2.43;;;3.30;99.90;;;;;;4984775;28;20207;-76
2022/01/31 00:29:08;;;;;;;11.47;2.80;;;3.40;99.90;;;;;;4984372;28;20188;-76
2022/01/31 00:31:33;;;;;;;9.00;2.77;;;3.40;99.90;;;;;;4984293;28;20262;-77
2022/01/31 00:33:59;;;;;;;12.27;3.00;;;3.40;99.90;;;;;;4984731;28;20758;-77
2022/01/31 00:36:25;;;;;;;17.50;3.33;;;3.40;99.90;;;;;;4984313;28;20200;-77
2022/01/31 00:38:50;;;;;;;12.03;3.77;;;3.40;99.90;;;;;;4989134;28;20279;-79
2022/01/31 00:41:16;;;;;;;15.53;2.80;;;3.40;99.90;;;;;;4988745;28;20759;-77
2022/01/31 00:43:44;;;;;;;11.67;2.43;;;3.40;99.90;;;;;;4989295;28;20519;-79
2022/01/31 00:46:12;;;;;;;11.60;2.47;;;3.30;99.90;;;;;;4988993;28;20900;-78
2022/01/31 00:48:44;;;;;;;11.20;2.43;;;3.40;99.90;;;;;;4989143;28;20227;-79
2022/01/31 00:51:10;;;;;;;9.70;2.47;;;3.30;99.90;;;;;;4988148;28;20211;-77
2022/01/31 00:53:37;;;;;;;11.53;2.63;;;3.40;99.90;;;;;;4988067;28;20180;-79
2022/01/31 00:56:03;;;;;;;13.93;3.13;;;3.40;99.90;;;;;;4988491;28;21195;-77
2022/01/31 00:58:29;;;;;;;11.13;2.63;;;3.40;99.90;;;;;;4989292;28;20183;-80
2022/01/31 01:00:54;;;;;;;16.73;3.73;;;3.40;99.90;;;;;;4989811;28;20185;-79
2022/01/31 01:03:20;;;;;;;13.87;2.33;;;3.40;99.90;;;;;;4989652;28;20261;-79
2022/01/31 01:05:45;;;;;;;13.00;2.67;;;3.30;99.90;;;;;;4972040;28;20216;-79
2022/01/31 01:08:11;;;;;;;10.43;2.87;;;3.40;99.90;;;;;;4988834;28;20677;-78
2022/01/31 01:10:36;;;;;;;13.27;3.97;;;3.40;99.90;;;;;;4988403;28;20635;-77
2022/01/31 01:13:03;;;;;;;12.77;2.80;;;3.40;99.90;;;;;;4988413;28;20243;-77
2022/01/31 01:15:29;;;;;;;10.90;2.20;;;3.30;99.90;;;;;;4970651;28;20180;-78
2022/01/31 01:17:54;;;;;;;14.10;2.27;;;3.30;99.90;;;;;;4988249;28;20206;-80
2022/01/31 01:20:20;;;;;;;10.70;2.73;;;3.30;99.90;;;;;;4988356;28;20184;-77
2022/01/31 01:22:46;;;;;;;15.80;2.33;;;3.30;99.90;;;;;;4988062;28;20610;-78
2022/01/31 01:25:14;;;;;;;9.97;2.30;;;3.40;99.90;;;;;;4988417;28;20686;-78
2022/01/31 01:27:42;;;;;;;17.33;3.43;;;3.30;99.90;;;;;;4987215;28;20216;-78
2022/01/31 01:30:10;;;;;;;14.27;3.23;;;3.30;99.90;;;;;;4987700;28;20191;-78
2022/01/31 01:32:45;;;;;;;8.50;2.27;;;3.30;99.90;;;;;;4988479;28;20268;-80
2022/01/31 01:35:11;;;;;;;12.30;2.73;;;3.30;99.90;;;;;;4989776;28;20176;-78
2022/01/31 01:37:37;;;;;;;9.43;2.33;;;3.20;99.90;;;;;;4971450;28;20267;-80
2022/01/31 01:40:04;;;;;;;12.20;2.63;;;3.20;99.90;;;;;;4989578;28;20725;-79
2022/01/31 01:42:30;;;;;;;16.23;2.80;;;3.20;99.90;;;;;;4988438;28;20208;-80
2022/01/31 01:44:55;;;;;;;14.30;2.40;;;3.10;99.90;;;;;;4971552;28;20215;-79
2022/01/31 01:47:23;;;;;;;9.90;2.67;;;3.20;99.90;;;;;;4987729;28;20609;-77
2022/01/31 01:49:50;;;;;;;11.30;2.47;;;3.20;99.90;;;;;;4982909;28;20188;-80
2022/01/31 01:52:17;;;;;;;12.77;2.70;;;3.10;99.90;;;;;;4970703;28;20208;-78
2022/01/31 01:54:44;;;;;;;12.63;2.93;;;3.10;99.90;;;;;;4988256;28;20191;-79
2022/01/31 01:57:10;;;;;;;10.93;2.80;;;3.10;99.90;;;;;;4986991;28;20208;-77
2022/01/31 01:59:37;;;;;;;11.80;2.83;;;3.10;99.90;;;;;;4988236;28;20260;-78
2022/01/31 02:02:04;;;;;;;17.07;3.43;;;3.10;99.90;;;;;;4987215;28;20200;-81
2022/01/31 02:04:31;;;;;;;17.80;3.80;;;3.10;99.90;;;;;;4988085;28;20188;-80
2022/01/31 02:06:56;;;;;;;12.70;2.37;;;3.20;99.90;;;;;;4988646;28;20239;-79
2022/01/31 02:09:24;;;;;;;10.00;2.50;;;3.00;99.90;;;;;;4970361;28;20216;-78
2022/01/31 02:11:50;;;;;;;14.33;3.50;;;3.10;99.90;;;;;;4987307;28;20204;-80
2022/01/31 02:14:16;;;;;;;15.43;3.50;;;3.00;99.90;;;;;;4988236;28;20827;-78
2022/01/31 02:16:41;;;;;;;11.73;2.73;;;3.00;99.90;;;;;;4987237;28;20679;-78
2022/01/31 02:19:08;;;;;;;18.03;3.27;;;2.90;99.90;;;;;;4987688;28;20184;-78
2022/01/31 02:21:34;;;;;;;15.13;3.20;;;2.90;99.90;;;;;;4987326;28;20592;-78
2022/01/31 02:24:00;;;;;;;11.73;2.63;;;3.00;99.90;;;;;;4987588;28;20278;-78
2022/01/31 02:26:26;;;;;;;16.97;3.57;;;3.00;99.90;;;;;;4987423;28;20207;-77
2022/01/31 02:28:52;;;;;;;16.87;3.10;;;3.00;99.90;;;;;;4969325;28;20283;-79
2022/01/31 02:31:17;;;;;;;10.33;2.60;;;3.00;99.90;;;;;;4987142;28;20208;-78
2022/01/31 02:33:43;;;;;;;10.10;3.30;;;2.90;99.90;;;;;;4987188;28;20184;-77
2022/01/31 02:36:09;;;;;;;12.80;2.80;;;2.90;99.90;;;;;;4987075;28;20200;-78
2022/01/31 02:38:34;;;;;;;10.33;2.30;;;2.80;99.90;;;;;;4986871;28;20199;-77
2022/01/31 02:41:00;;;;;;;15.57;3.40;;;2.80;99.90;;;;;;4986498;28;20188;-78
2022/01/31 02:43:32;;;;;;;9.40;3.00;;;2.80;99.90;;;;;;4969178;28;20218;-78
2022/01/31 02:45:59;;;;;;;9.17;2.37;;;3.00;99.90;;;;;;4986650;28;20199;-77
2022/01/31 02:48:26;;;;;;;14.03;3.67;;;2.90;99.90;;;;;;4987804;28;20176;-80
2022/01/31 02:50:52;;;;;;;14.13;2.67;;;2.90;99.90;;;;;;4969595;28;20283;-80
2022/01/31 02:53:24;;;;;;;11.47;3.10;;;2.90;99.90;;;;;;4969935;28;20188;-79
2022/01/31 02:55:53;;;;;;;9.73;2.90;;;2.90;99.90;;;;;;4988085;28;20180;-79
2022/01/31 02:58:19;;;;;;;19.53;2.57;;;2.80;99.90;;;;;;4986293;28;20211;-76
2022/01/31 03:00:45;;;;;;;9.23;2.53;;;2.80;99.90;;;;;;4987013;28;20254;-79
2022/01/31 03:03:11;;;;;;;14.03;2.77;;;2.90;99.90;;;;;;4987676;28;20188;-79
2022/01/31 03:05:37;;;;;;;16.00;2.90;;;2.90;99.90;;;;;;4971279;28;20713;-80
2022/01/31 03:08:04;;;;;;;14.90;2.63;;;2.90;99.90;;;;;;4987140;28;20315;-80
2022/01/31 03:10:30;;;;;;;13.97;2.83;;;2.80;99.90;;;;;;4988260;28;22562;-79
2022/01/31 03:12:56;;;;;;;16.20;3.60;;;2.80;99.90;;;;;;4987410;28;20275;-78
2022/01/31 03:15:22;;;;;;;12.33;2.60;;;2.80;99.90;;;;;;4986828;28;20180;-78
2022/01/31 03:17:49;;;;;;;13.03;3.03;;;2.70;99.90;;;;;;4968959;28;20288;-78
2022/01/31 03:20:20;;;;;;;10.57;2.17;;;2.70;99.90;;;;;;4968671;28;20184;-78
2022/01/31 03:22:46;;;;;;;11.73;2.67;;;2.70;99.90;;;;;;4986793;28;21292;-78
2022/01/31 03:25:12;;;;;;;10.03;3.53;;;2.80;99.90;;;;;;4986787;28;20673;-77
2022/01/31 03:27:40;;;;;;;14.10;3.47;;;2.70;99.90;;;;;;4987119;28;20291;-80
2022/01/31 03:30:07;;;;;;;13.87;3.13;;;2.70;99.90;;;;;;4986976;28;20188;-80
2022/01/31 03:32:33;;;;;;;14.47;2.90;;;2.70;99.90;;;;;;4988708;28;20583;-78
2022/01/31 03:34:59;;;;;;;11.10;2.50;;;2.80;99.90;;;;;;4986236;28;20192;-77
2022/01/31 03:37:24;;;;;;;7.57;2.93;;;2.80;99.90;;;;;;4985844;28;20203;-78
2022/01/31 03:39:50;;;;;;;9.67;2.77;;;2.80;99.90;;;;;;4985929;28;20562;-78
2022/01/31 03:42:18;;;;;;;6.93;2.57;;;2.90;99.90;;;;;;4968309;28;20633;-77
2022/01/31 03:44:48;;;;;;;11.10;2.73;;;2.80;99.90;;;;;;4987898;28;20658;-80
2022/01/31 03:47:16;;;;;;;11.60;2.43;;;2.90;99.90;;;;;;4993703;28;20231;-81
2022/01/31 03:49:42;;;;;;;14.23;3.73;;;2.90;99.90;;;;;;4992101;28;20259;-79
2022/01/31 03:52:08;;;;;;;10.50;3.13;;;2.90;99.90;;;;;;4975701;28;21159;-79
2022/01/31 03:54:34;;;;;;;17.53;3.23;;;2.80;99.90;;;;;;4993062;28;20192;-80
2022/01/31 03:56:59;;;;;;;14.07;3.30;;;2.90;99.90;;;;;;4975029;28;20714;-77
2022/01/31 03:59:25;;;;;;;10.40;2.90;;;2.80;99.90;;;;;;4993003;28;20176;-80
2022/01/31 04:01:51;;;;;;;9.57;2.63;;;2.70;99.90;;;;;;4993069;28;20239;-78
2022/01/31 04:04:17;;;;;;;9.13;2.90;;;2.70;99.90;;;;;;4975705;28;20654;-76
2022/01/31 04:06:43;;;;;;;14.47;2.63;;;2.70;99.90;;;;;;4992624;28;20227;-78
2022/01/31 04:09:08;;;;;;;8.20;2.50;;;2.70;99.90;;;;;;4992638;28;20628;-79
2022/01/31 04:11:34;;;;;;;8.87;3.17;;;2.70;99.90;;;;;;4974143;28;20207;-79
2022/01/31 04:14:00;;;;;;;8.90;2.77;;;2.70;99.90;;;;;;4995686;28;20556;-77
2022/01/31 04:16:26;;;;;;;12.97;2.90;;;2.70;99.90;;;;;;4978244;28;20214;-81
2022/01/31 04:18:52;;;;;;;9.13;2.60;;;2.70;99.90;;;;;;4994471;28;20717;-74
2022/01/31 04:21:18;;;;;;;11.17;2.60;;;2.70;99.90;;;;;;4994990;28;20242;-78
2022/01/31 04:23:43;;;;;;;10.13;2.50;;;2.70;99.90;;;;;;4976273;28;20286;-78
2022/01/31 04:26:14;;;;;;;10.63;2.93;;;2.60;99.90;;;;;;4994396;28;20339;-79
2022/01/31 04:33:51;;;;;;;12.00;2.70;;;2.50;99.90;;;;;;4991202;28;20203;-76
2022/01/31 04:36:18;;;;;;;8.80;2.83;;;2.50;99.90;;;;;;4971012;28;20208;-81
2022/01/31 04:38:46;;;;;;;5.13;2.70;;;2.50;99.90;;;;;;4986132;28;20669;-79
2022/01/31 04:41:12;;;;;;;9.50;3.20;;;2.60;99.90;;;;;;4969454;28;20659;-80
2022/01/31 04:43:37;;;;;;;8.43;2.53;;;2.50;99.90;;;;;;4978832;28;20279;-79
2022/01/31 04:46:06;;;;;;;10.43;2.90;;;2.70;99.90;;;;;;4991874;28;20188;-75
2022/01/31 04:48:31;;;;;;;10.17;2.70;;;2.80;99.90;;;;;;5009088;28;20191;-77
2022/01/31 04:50:57;;;;;;;7.33;2.33;;;2.80;99.90;;;;;;4992007;28;20231;-76
2022/01/31 04:53:23;;;;;;;10.83;3.23;;;2.80;99.90;;;;;;5007963;28;20827;-78
2022/01/31 04:55:49;;;;;;;8.00;2.90;;;2.80;99.90;;;;;;5008761;28;20184;-79
2022/01/31 04:58:15;;;;;;;9.57;2.53;;;2.70;99.90;;;;;;4989930;28;20740;-78
2022/01/31 05:00:41;;;;;;;12.10;3.10;;;2.70;99.90;;;;;;4985991;28;20184;-80
2022/01/31 05:03:12;;;;;;;8.60;2.60;;;2.70;99.90;;;;;;4988972;28;20184;-78
2022/01/31 05:05:39;;;;;;;9.00;3.30;;;2.80;99.90;;;;;;5006048;28;20208;-83
2022/01/31 05:08:05;;;;;;;6.87;2.47;;;2.90;99.90;;;;;;4991964;28;20208;-74
2022/01/31 05:10:33;;;;;;;7.53;2.73;;;2.90;99.90;;;;;;4974234;28;20192;-82
2022/01/31 05:12:58;;;;;;;8.43;2.60;;;2.80;99.90;;;;;;4992002;28;20180;-78
2022/01/31 05:15:24;;;;;;;8.47;2.77;;;2.80;99.90;;;;;;4992318;28;20184;-82
2022/01/31 05:17:49;;;;;;;6.83;2.47;;;2.80;99.90;;;;;;4991971;28;20223;-80
2022/01/31 05:20:15;;;;;;;9.70;2.80;;;2.70;99.90;;;;;;4974652;28;20307;-78
2022/01/31 05:22:40;;;;;;;4.20;2.53;;;2.80;99.90;;;;;;4993103;28;20270;-81
2022/01/31 05:25:06;;;;;;;11.17;4.10;;;2.80;99.90;;;;;;4991140;28;20456;-79
2022/01/31 05:27:32;;;;;;;7.90;3.17;;;2.90;99.90;;;;;;4975336;28;20208;-81
2022/01/31 05:29:57;;;;;;;7.33;2.70;;;2.90;99.90;;;;;;4992881;28;20267;-79
2022/01/31 05:32:23;;;;;;;10.57;2.67;;;2.90;99.90;;;;;;4974846;28;20634;-81
2022/01/31 05:34:49;;;;;;;7.70;2.40;;;3.00;99.90;;;;;;4992744;28;20181;-79
2022/01/31 05:37:14;;;;;;;9.00;2.87;;;3.10;99.90;;;;;;4974646;28;20207;-80
2022/01/31 05:39:40;;;;;;;6.27;2.40;;;3.00;99.90;;;;;;4975624;28;20271;-79
2022/01/31 05:42:06;;;;;;;6.47;2.33;;;3.00;99.90;;;;;;4992596;28;20189;-82
2022/01/31 05:44:31;;;;;;;6.67;2.00;;;2.90;99.90;;;;;;4973859;28;20188;-79
2022/01/31 05:46:57;;;;;;;5.93;2.40;;;2.90;99.90;;;;;;4974305;28;20216;-75
2022/01/31 05:49:23;;;;;;;7.87;2.50;;;2.90;99.90;;;;;;4991165;28;20211;-80
2022/01/31 05:52:01;;;;;;;8.17;2.37;;;2.90;99.90;;;;;;4973639;28;20212;-75
2022/01/31 05:54:27;;;;;;;9.20;2.53;;;2.80;99.90;;;;;;4989229;28;20461;-79
2022/01/31 05:56:55;;;;;;;7.80;2.47;;;2.80;99.90;;;;;;4973460;28;20204;-76
2022/01/31 05:59:20;;;;;;;8.17;2.10;;;2.80;99.90;;;;;;4991034;28;20184;-78
2022/01/31 06:01:46;;;;;;;5.90;1.80;;;2.80;99.90;;;;;;4991247;28;20693;-80
2022/01/31 06:04:12;;;;;;;7.10;2.00;;;2.80;99.90;;;;;;4973291;28;20198;-81
2022/01/31 06:06:37;;;;;;;5.43;2.07;;;2.70;99.90;;;;;;4990842;28;20204;-78
2022/01/31 06:09:04;;;;;;;8.20;2.60;;;2.70;99.90;;;;;;4973499;28;20686;-79
2022/01/31 06:11:31;;;;;;;4.30;2.77;;;2.50;99.90;;;;;;4990919;28;20235;-81
2022/01/31 06:14:00;;;;;;;8.60;2.73;;;2.50;99.90;;;;;;4990274;28;20176;-77
2022/01/31 06:16:27;;;;;;;4.27;2.20;;;2.30;99.90;;;;;;4973562;28;20262;-81
2022/01/31 06:18:53;;;;;;;6.23;2.20;;;2.20;99.90;;;;;;4973339;28;20184;-80
2022/01/31 06:21:18;;;;;;;6.10;2.00;;;2.20;99.90;;;;;;4972734;28;20176;-77
2022/01/31 06:23:44;;;;;;;8.77;2.40;;;2.20;99.90;;;;;;4973185;28;20568;-80
2022/01/31 06:26:10;;;;;;;4.00;2.07;;;2.10;99.90;;;;;;4973708;28;20282;-79
2022/01/31 06:28:36;;;;;;;6.63;2.30;;;2.00;99.90;;;;;;4973182;28;20184;-77
2022/01/31 06:31:02;;;;;;;8.30;2.50;;;2.00;99.90;;;;;;4973303;28;20870;-75
2022/01/31 06:33:27;;;;;;;7.67;2.27;;;2.00;99.90;;;;;;4989191;28;20725;-80
2022/01/31 06:35:53;;;;;;;9.03;2.47;;;1.90;99.90;;;;;;4972232;28;21254;-80
2022/01/31 06:38:21;;;;;;;7.47;2.23;;;1.90;99.90;;;;;;4989951;28;20694;-80
2022/01/31 06:40:47;;;;;;;9.83;2.27;;;1.80;99.90;;;;;;4991028;28;20176;-78
2022/01/31 06:43:13;;;;;;;7.20;3.00;;;1.80;99.90;;;;;;4972126;28;20667;-75
2022/01/31 06:45:39;;;;;;;7.73;2.27;;;1.70;99.90;;;;;;4972056;28;20184;-79
2022/01/31 06:48:05;;;;;;;9.27;2.73;;;1.70;99.90;;;;;;4972628;28;20242;-79
2022/01/31 06:50:30;;;;;;;3.67;2.03;;;1.60;99.90;;;;;;4988206;28;20597;-78
2022/01/31 06:52:57;;;;;;;5.63;2.30;;;1.60;99.90;;;;;;4972314;28;20180;-80
2022/01/31 06:55:23;;;;;;;4.73;2.20;;;1.50;99.90;;;;;;4972390;28;20187;-78
2022/01/31 06:57:51;;;;;;;7.10;2.37;;;1.60;99.90;;;;;;4989196;28;20619;-80
2022/01/31 07:00:18;;;;;;;8.00;2.67;;;1.60;99.90;;;;;;4971569;28;20185;-77
2022/01/31 07:02:47;;;;;;;6.80;2.63;;;1.60;99.90;;;;;;4990399;28;20241;-77
2022/01/31 07:05:14;;;;;;;4.90;2.60;;;1.50;99.90;;;;;;4989660;28;20207;-75
2022/01/31 07:07:40;;;;;;;8.10;2.77;;;1.40;99.90;;;;;;4971944;28;20208;-80
2022/01/31 07:10:06;;;;;;;4.93;2.90;;;1.40;99.90;;;;;;4989558;28;20191;-75
2022/01/31 07:12:36;;;;;;;6.20;2.53;;;1.30;99.90;;;;;;4972275;28;20675;-80
2022/01/31 07:15:03;;;;;;;6.13;2.73;;;1.30;99.90;;;;;;4989041;28;20176;-80
2022/01/31 07:17:30;;;;;;;5.40;2.90;;;1.20;99.90;;;;;;4971672;28;20295;-77
2022/01/31 07:19:56;;;;;;;7.00;3.37;;;1.20;99.90;;;;;;4989825;28;20238;-79
2022/01/31 07:22:28;;;;;;;4.53;2.53;;;1.20;99.90;;;;;;4972432;28;20651;-78
2022/01/31 07:25:05;;;;;;;4.67;2.90;;;1.30;99.90;;;;;;4989949;28;20669;-78
2022/01/31 07:27:31;;;;;;;3.37;2.30;;;1.20;99.90;;;;;;4989065;28;20215;-78
2022/01/31 07:29:56;;;;;;;5.40;2.90;;;1.10;99.90;;;;;;4990165;28;20597;-77
2022/01/31 07:32:22;;;;;;;4.80;2.83;;;1.10;99.90;;;;;;4989406;28;20203;-78
2022/01/31 07:34:52;;;;;;;6.50;3.00;;;1.20;99.90;;;;;;4971844;28;20183;-75
2022/01/31 07:37:22;;;;;;;5.33;2.80;;;1.20;99.90;;;;;;4988900;28;20206;-77
2022/01/31 07:39:48;;;;;;;5.73;2.87;;;1.30;99.90;;;;;;4989750;28;20183;-74
2022/01/31 07:42:14;;;;;;;5.10;2.53;;;1.30;99.90;;;;;;4971647;28;20188;-78
2022/01/31 07:44:40;;;;;;;4.63;2.47;;;1.40;99.90;;;;;;4989337;28;20191;-80
2022/01/31 07:47:06;;;;;;;6.43;3.00;;;1.40;99.90;;;;;;4989195;28;20227;-78
2022/01/31 07:49:31;;;;;;;3.80;2.70;;;1.50;99.90;;;;;;4989625;28;20547;-77
2022/01/31 07:51:58;;;;;;;4.07;2.57;;;1.40;99.90;;;;;;4989892;28;20230;-76
2022/01/31 07:54:24;;;;;;;4.40;2.63;;;1.30;99.90;;;;;;4972164;28;20184;-79
2022/01/31 07:56:50;;;;;;;4.83;2.63;;;1.30;99.90;;;;;;4989257;28;20267;-76
2022/01/31 07:59:16;;;;;;;4.43;2.60;;;1.20;99.90;;;;;;4972241;28;20670;-80
2022/01/31 08:01:42;;;;;;;3.33;2.47;;;1.20;99.90;;;;;;4971247;28;20223;-80
2022/01/31 08:04:09;;;;;;;3.40;2.57;;;1.30;99.90;;;;;;4989734;28;20191;-79
2022/01/31 08:06:36;;;;;;;3.70;2.80;;;1.30;99.90;;;;;;4989872;28;20196;-79
2022/01/31 08:09:01;;;;;;;2.97;2.10;;;1.20;99.90;;;;;;4972033;28;20231;-76
2022/01/31 08:11:32;;;;;;;2.80;2.37;;;1.20;99.90;;;;;;4990707;28;20236;-77
2022/01/31 08:14:01;;;;;;;4.60;2.33;;;1.20;99.90;;;;;;4989688;28;20195;-78
2022/01/31 08:16:27;;;;;;;2.87;2.00;;;1.20;99.90;;;;;;4988383;28;20683;-80
2022/01/31 08:18:52;;;;;;;2.97;2.07;;;1.30;99.90;;;;;;4972354;28;20208;-79
2022/01/31 08:21:20;;;;;;;3.63;2.13;;;1.30;99.90;;;;;;4989694;28;20195;-79
2022/01/31 08:23:46;;;;;;;2.63;2.10;;;1.30;99.90;;;;;;4989021;28;20304;-79
2022/01/31 08:26:16;;;;;;;2.17;1.97;;;1.30;99.90;;;;;;4970604;28;20208;-77
2022/01/31 08:28:45;;;;;;;1.87;1.67;;;1.40;99.90;;;;;;4970884;28;20180;-77
2022/01/31 08:31:16;;;;;;;1.67;1.40;;;1.40;99.90;;;;;;4987755;28;20674;-79
2022/01/31 08:33:50;;;;;;;1.77;1.67;;;1.40;99.90;;;;;;4989633;28;20198;-79
2022/01/31 08:36:16;;;;;;;2.00;1.40;;;1.40;99.90;;;;;;4986735;28;20207;-80
2022/01/31 08:38:44;;;;;;;1.30;1.20;;;1.40;99.90;;;;;;4986469;28;20184;-78
2022/01/31 08:41:11;;;;;;;1.60;1.40;;;1.30;99.90;;;;;;4986495;28;20247;-80
2022/01/31 08:43:38;;;;;;;1.53;1.20;;;1.40;99.90;;;;;;4986499;28;20177;-77
2022/01/31 08:46:06;;;;;;;1.27;1.13;;;1.50;99.90;;;;;;4968859;28;20214;-81
2022/01/31 08:48:32;;;;;;;1.50;1.23;;;1.60;99.90;;;;;;4985164;28;20196;-77
2022/01/31 08:50:58;;;;;;;1.10;1.00;;;1.70;99.90;;;;;;4968513;28;20215;-78
2022/01/31 08:53:24;;;;;;;1.50;1.20;;;1.90;99.90;;;;;;4985270;28;20571;-76
2022/01/31 08:55:58;;;;;;;1.60;1.20;;;1.90;99.90;;;;;;4981916;28;20894;-79
2022/01/31 08:58:24;;;;;;;1.80;1.00;;;1.80;99.90;;;;;;4983842;28;20211;-76
2022/01/31 09:00:58;;;;;;;0.87;0.87;;;2.00;99.90;;;;;;4967598;28;20215;-77
2022/01/31 09:06:00;;;;;;;1.03;0.80;;;2.10;99.90;;;;;;4988600;28;20188;-80
2022/01/31 09:08:26;;;;;;;0.87;0.87;;;2.10;99.90;;;;;;4990877;28;20194;-77
2022/01/31 09:10:52;;;;;;;2.10;1.03;;;2.20;99.90;;;;;;4989499;28;21307;-79
2022/01/31 09:13:18;;;;;;;1.37;0.90;;;2.20;99.90;;;;;;4990118;28;20177;-76
2022/01/31 09:15:44;;;;;;;2.33;0.90;;;2.30;99.90;;;;;;4972424;28;20181;-80
2022/01/31 09:18:09;;;;;;;1.33;0.93;;;2.20;99.90;;;;;;4989262;28;20208;-80
2022/01/31 09:20:36;;;;;;;1.57;1.00;;;2.20;99.90;;;;;;4989990;28;20220;-78
2022/01/31 09:23:02;;;;;;;1.07;0.97;;;2.40;99.90;;;;;;4989914;28;20184;-80
2022/01/31 09:25:29;;;;;;;1.37;0.80;;;2.50;99.90;;;;;;4989735;28;20222;-79
2022/01/31 09:27:56;;;;;;;1.10;1.00;;;2.60;99.90;;;;;;4989568;28;20192;-82
2022/01/31 09:30:22;;;;;;;1.47;0.90;;;2.70;99.90;;;;;;4971983;28;20931;-80
2022/01/31 09:32:48;;;;;;;0.70;0.70;;;2.80;99.90;;;;;;4989848;28;20219;-77
2022/01/31 09:35:14;;;;;;;1.10;0.90;;;2.90;99.90;;;;;;4990725;28;20189;-80
2022/01/31 09:37:40;;;;;;;0.97;0.77;;;3.00;99.90;;;;;;4989192;28;20204;-78
2022/01/31 09:40:06;;;;;;;1.17;1.07;;;3.00;99.90;;;;;;4990163;28;20218;-81
2022/01/31 09:43:01;;;;;;;2.27;0.90;;;3.00;99.90;;;;;;4990222;28;20180;-79
2022/01/31 09:45:36;;;;;;;1.30;1.20;;;3.00;99.90;;;;;;4989217;28;20188;-79
2022/01/31 09:50:28;;;;;;;1.23;1.10;;;3.00;99.90;;;;;;4990022;28;20188;-81
2022/01/31 09:52:55;;;;;;;1.47;1.33;;;2.90;99.90;;;;;;4990192;28;20180;-81
2022/01/31 09:55:22;;;;;;;1.97;1.73;;;2.90;99.90;;;;;;4988451;28;20188;-81
2022/01/31 09:57:48;;;;;;;2.23;1.73;;;2.80;99.90;;;;;;4990395;28;20208;-75
2022/01/31 10:00:14;;;;;;;2.47;1.50;;;2.80;99.90;;;;;;4990402;28;20296;-78
2022/01/31 10:03:00;;;;;;;3.37;1.97;;;2.80;99.90;;;;;;4989985;28;21368;-79
2022/01/31 10:05:29;;;;;;;2.00;1.80;;;2.70;99.90;;;;;;4989645;28;20199;-77
2022/01/31 10:07:55;;;;;;;2.40;2.07;;;2.80;99.90;;;;;;4973945;28;20239;-79
2022/01/31 10:10:23;;;;;;;4.00;3.20;;;2.80;99.90;;;;;;4989032;28;21007;-75
2022/01/31 10:18:06;;;;;;;4.67;3.40;;;2.70;99.90;;;;;;4990624;28;20238;-74
2022/01/31 10:20:33;;;;;;;6.80;4.13;;;2.80;99.90;;;;;;4988317;28;20182;-77
2022/01/31 10:23:25;;;;;;;5.80;3.97;;;2.80;99.90;;;;;;4988426;28;20188;-75
2022/01/31 10:25:51;;;;;;;5.67;3.83;;;2.90;99.90;;;;;;4986157;28;20192;-76
2022/01/31 10:28:20;;;;;;;4.70;4.00;;;3.10;99.90;;;;;;4991117;28;20200;-75
2022/01/31 10:30:47;;;;;;;9.43;6.50;;;3.20;99.90;;;;;;4989841;28;20188;-75
2022/01/31 10:33:14;;;;;;;8.80;6.93;;;3.30;99.90;;;;;;4990901;28;20323;-77
2022/01/31 10:35:41;;;;;;;12.03;7.57;;;3.50;99.90;;;;;;4990449;28;20333;-78
2022/01/31 10:38:12;;;;;;;11.13;7.10;;;3.60;99.90;;;;;;4990535;28;20573;-76
2022/01/31 10:44:24;;;;;;;7.47;5.20;;;3.60;99.90;;;;;;4989944;28;20681;-77
2022/01/31 10:51:58;;;;;;;6.47;3.83;;;3.60;99.90;;;;;;4989821;28;20207;-80
2022/01/31 10:57:04;;;;;;;10.80;4.57;;;3.60;99.90;;;;;;4989919;28;20203;-81
2022/01/31 10:59:33;;;;;;;6.47;4.57;;;3.50;99.90;;;;;;4972236;28;20183;-74
2022/01/31 11:02:00;;;;;;;6.30;4.30;;;3.50;99.90;;;;;;4990906;28;20189;-80
2022/01/31 11:04:37;;;;;;;6.93;4.23;;;3.50;99.90;;;;;;4989810;28;20180;-76
2022/01/31 11:07:17;;;;;;;5.70;3.73;;;3.50;99.90;;;;;;4990075;28;20468;-78
2022/01/31 11:09:45;;;;;;;8.47;3.90;;;3.40;99.90;;;;;;4972319;28;20557;-75
2022/01/31 11:12:11;;;;;;;5.17;3.70;;;3.30;99.90;;;;;;4990614;28;20279;-74
2022/01/31 11:14:39;;;;;;;5.60;3.57;;;3.20;99.90;;;;;;4990706;28;20191;-78
2022/01/31 11:17:10;;;;;;;6.00;3.57;;;3.20;99.90;;;;;;4989757;28;20208;-78
2022/01/31 11:19:36;;;;;;;4.37;2.90;;;3.30;99.90;;;;;;4989808;28;20830;-75
2022/01/31 11:22:07;;;;;;;4.70;3.43;;;3.50;99.90;;;;;;4989836;28;20203;-78
2022/01/31 11:24:41;;;;;;;6.83;4.00;;;3.40;99.90;;;;;;4989304;28;20297;-74
2022/01/31 11:27:13;;;;;;;8.30;4.53;;;3.50;99.90;;;;;;4989133;28;20207;-79
2022/01/31 11:29:46;;;;;;;8.60;4.83;;;3.50;99.90;;;;;;4987885;28;20268;-77
2022/01/31 11:32:12;;;;;;;6.97;4.40;;;3.50;99.90;;;;;;4986606;28;20462;-78
2022/01/31 11:34:41;;;;;;;6.83;3.90;;;3.50;99.90;;;;;;4988008;28;20187;-79
2022/01/31 11:37:12;;;;;;;5.90;3.60;;;3.50;99.90;;;;;;4987476;28;20612;-75
2022/01/31 11:39:41;;;;;;;5.40;3.67;;;3.50;99.90;;;;;;4987705;28;20235;-79
2022/01/31 11:42:08;;;;;;;5.73;3.87;;;3.60;99.90;;;;;;4988298;28;20184;-78
2022/01/31 11:44:49;;;;;;;5.57;3.53;;;3.60;99.90;;;;;;4970195;28;20603;-78
2022/01/31 11:47:19;;;;;;;5.50;3.67;;;3.70;99.90;;;;;;4971105;28;20215;-78
2022/01/31 11:49:54;;;;;;;7.30;3.43;;;3.70;99.90;;;;;;4985949;28;20471;-75
2022/01/31 11:52:20;;;;;;;4.40;3.37;;;3.70;99.90;;;;;;4969552;28;20207;-77
2022/01/31 11:54:51;;;;;;;3.87;3.10;;;3.70;99.90;;;;;;4987620;28;20227;-75
2022/01/31 11:57:25;;;;;;;7.87;3.90;;;3.80;99.90;;;;;;4987875;28;20262;-78
2022/01/31 11:59:56;;;;;;;4.73;3.57;;;3.60;99.90;;;;;;4970062;28;20486;-78
2022/01/31 12:02:24;;;;;;;6.07;3.93;;;3.40;99.90;;;;;;4969698;28;20184;-77
2022/01/31 12:04:51;;;;;;;7.00;4.90;;;3.10;99.90;;;;;;4986658;28;20242;-77
2022/01/31 12:07:30;;;;;;;6.17;3.90;;;3.00;99.90;;;;;;4986541;28;20216;-77
2022/01/31 12:09:58;;;;;;;8.57;4.37;;;2.90;99.90;;;;;;4987203;28;20895;-78
2022/01/31 12:12:40;;;;;;;7.77;5.00;;;2.90;99.90;;;;;;4987382;28;20211;-76
2022/01/31 12:18:41;;;;;;;7.47;4.90;;;2.90;99.90;;;;;;4987800;28;20216;-80
2022/01/31 12:24:04;;;;;;;7.57;4.97;;;2.90;99.90;;;;;;4987372;28;20250;-81
2022/01/31 12:26:36;;;;;;;11.83;6.47;;;2.90;99.90;;;;;;4987630;28;20263;-80
2022/01/31 12:29:16;;;;;;;7.40;4.80;;;2.80;99.90;;;;;;4986339;28;20253;-77
2022/01/31 12:32:08;;;;;;;5.67;4.10;;;2.80;99.90;;;;;;4987515;28;20208;-80
2022/01/31 12:34:36;;;;;;;8.50;4.80;;;2.80;99.90;;;;;;4987004;28;20185;-80
2022/01/31 12:37:23;;;;;;;10.73;6.17;;;2.70;99.90;;;;;;4991051;28;20569;-79
2022/01/31 12:40:00;;;;;;;8.40;5.07;;;2.60;99.90;;;;;;4973631;28;20184;-80
2022/01/31 12:45:08;;;;;;;4.97;3.63;;;2.60;99.90;;;;;;4992108;28;20275;-81
2022/01/31 12:47:34;;;;;;;8.80;4.60;;;2.50;99.90;;;;;;4991837;28;20230;-77
2022/01/31 12:50:20;;;;;;;15.37;9.57;;;2.50;99.90;;;;;;4988690;28;20278;-76
2022/01/31 12:52:46;;;;;;;9.30;5.70;;;2.50;99.90;;;;;;4973451;28;20208;-77
2022/01/31 12:55:13;;;;;;;10.17;7.17;;;2.50;99.90;;;;;;4973619;28;20283;-77
2022/01/31 12:57:52;;;;;;;10.97;8.73;;;2.60;99.90;;;;;;4973109;28;21203;-76
2022/01/31 13:00:41;;;;;;;6.53;5.17;;;2.60;99.90;;;;;;4970825;28;20194;-77
2022/01/31 13:03:10;;;;;;;4.30;3.33;;;2.60;99.90;;;;;;4990621;28;20238;-79
2022/01/31 13:05:38;;;;;;;2.47;2.27;;;2.50;99.90;;;;;;4990956;28;20192;-80
2022/01/31 13:08:23;;;;;;;3.97;1.77;;;2.40;99.90;;;;;;4990022;28;20310;-80
2022/01/31 13:10:51;;;;;;;3.67;2.70;;;2.30;99.90;;;;;;4991855;28;20211;-76
2022/01/31 13:13:34;;;;;;;4.87;2.93;;;2.20;99.90;;;;;;4987051;28;20204;-77
2022/01/31 13:16:04;;;;;;;17.37;11.37;;;2.20;99.90;;;;;;4989715;28;20188;-77
2022/01/31 13:18:34;;;;;;;4.17;3.53;;;2.20;99.90;;;;;;4991546;28;20216;-80
2022/01/31 13:21:05;;;;;;;2.87;2.40;;;2.30;99.90;;;;;;4974500;28;20612;-75
2022/01/31 13:23:33;;;;;;;3.00;2.33;;;2.20;99.90;;;;;;5000374;28;20239;-77
2022/01/31 13:26:01;;;;;;;16.43;12.20;;;2.10;99.90;;;;;;4982933;28;20194;-78
2022/01/31 13:28:27;;;;;;;4.87;3.10;;;2.10;99.90;;;;;;4986515;28;20211;-76
2022/01/31 13:30:53;;;;;;;4.60;3.30;;;2.20;99.90;;;;;;4988523;28;20188;-81
2022/01/31 13:33:19;;;;;;;4.03;3.10;;;2.10;99.90;;;;;;4988683;28;20546;-80